createdAt,value
2023-02-06T00:00:09.845Z,66.38
2023-02-06T00:02:44.504Z,66.42
2023-02-06T00:05:19.202Z,66.52
2023-02-06T00:07:53.147Z,66.59
2023-02-06T00:10:27.712Z,66.70
2023-02-06T00:13:01.297Z,66.84
2023-02-06T00:15:35.215Z,66.89
2023-02-06T00:18:09.029Z,66.90
2023-02-06T00:20:42.696Z,66.89
2023-02-06T00:23:17.190Z,66.88
2023-02-06T00:25:51.309Z,67.05
2023-02-06T00:28:25.234Z,67.15
2023-02-06T00:30:59.363Z,67.03
2023-02-06T00:33:33.389Z,66.96
2023-02-06T00:36:07.740Z,67.04
2023-02-06T00:38:41.935Z,66.99
2023-02-06T00:41:15.626Z,67.11
2023-02-06T00:43:49.239Z,67.23
2023-02-06T00:46:23.571Z,67.13
2023-02-06T00:48:57.217Z,67.09
2023-02-06T00:51:30.785Z,67.22
2023-02-06T00:54:04.890Z,67.23
2023-02-06T00:56:39.035Z,67.29
2023-02-06T00:59:13.525Z,67.29
2023-02-06T01:01:47.497Z,67.24
2023-02-06T01:04:21.159Z,67.25
2023-02-06T01:06:55.497Z,67.26
2023-02-06T01:09:29.015Z,67.14
2023-02-06T01:12:03.445Z,67.20
2023-02-06T01:14:37.327Z,67.27
2023-02-06T01:17:11.451Z,67.19
2023-02-06T01:19:46.035Z,67.12
2023-02-06T01:22:19.870Z,67.14
2023-02-06T01:24:53.308Z,67.15
2023-02-06T01:27:27.470Z,67.18
2023-02-06T01:30:01.371Z,67.21
2023-02-06T01:32:37.399Z,67.20
2023-02-06T01:35:13.243Z,67.23
2023-02-06T01:37:49.764Z,67.18
2023-02-06T01:40:23.856Z,67.23
2023-02-06T01:42:57.684Z,67.30
2023-02-06T01:45:45.701Z,67.34
2023-02-06T01:48:20.770Z,67.31
2023-02-06T01:50:58.617Z,67.43
2023-02-06T01:53:32.849Z,67.41
2023-02-06T01:56:09.361Z,67.44
2023-02-06T01:58:46.627Z,67.39
2023-02-06T02:01:21.359Z,67.42
2023-02-06T02:03:58.002Z,67.25
2023-02-06T02:06:43.786Z,67.05
2023-02-06T02:09:19.543Z,67.13
2023-02-06T02:11:53.693Z,67.07
2023-02-06T02:14:27.905Z,67.03
2023-02-06T02:17:14.695Z,67.05
2023-02-06T02:20:17.935Z,67.04
2023-02-06T02:23:07.840Z,67.12
2023-02-06T02:26:18.647Z,67.00
2023-02-06T02:29:21.960Z,67.12
2023-02-06T02:32:39.705Z,67.11
2023-02-06T02:35:30.511Z,67.24
2023-02-06T02:38:27.844Z,67.32
2023-02-06T02:41:11.535Z,67.38
2023-02-06T02:43:51.371Z,67.34
2023-02-06T02:46:31.895Z,67.23
2023-02-06T02:49:10.732Z,67.11
2023-02-06T02:52:00.173Z,67.09
2023-02-06T02:54:44.400Z,67.17
2023-02-06T02:57:27.582Z,67.18
2023-02-06T03:00:13.297Z,67.30
2023-02-06T03:02:50.479Z,67.31
2023-02-06T03:05:39.686Z,67.35
2023-02-06T03:08:24.234Z,67.24
2023-02-06T03:11:07.483Z,67.25
2023-02-06T03:13:50.648Z,67.39
2023-02-06T03:16:28.382Z,67.40
2023-02-06T03:19:06.840Z,67.35
2023-02-06T03:21:42.937Z,67.45
2023-02-06T03:24:21.186Z,67.37
2023-02-06T03:26:59.732Z,67.36
2023-02-06T03:29:37.099Z,67.43
2023-02-06T03:32:16.910Z,67.35
2023-02-06T03:35:00.331Z,67.34
2023-02-06T03:37:36.371Z,67.34
2023-02-06T03:40:12.532Z,67.39
2023-02-06T03:42:51.751Z,67.54
2023-02-06T03:45:29.721Z,67.59
2023-02-06T03:48:08.874Z,67.66
2023-02-06T03:50:45.991Z,67.75
2023-02-06T03:53:22.801Z,67.60
2023-02-06T03:56:01.774Z,67.59
2023-02-06T03:58:35.488Z,67.44
2023-02-06T04:01:10.256Z,67.45
2023-02-06T04:03:44.531Z,67.51
2023-02-06T04:06:18.257Z,67.53
2023-02-06T04:09:02.059Z,67.60
2023-02-06T04:11:35.446Z,67.71
2023-02-06T04:14:09.673Z,67.76
2023-02-06T04:16:43.548Z,67.71
2023-02-06T04:19:17.033Z,67.80
2023-02-06T04:21:51.004Z,67.77
2023-02-06T04:24:24.961Z,67.78
2023-02-06T04:26:58.784Z,67.92
2023-02-06T04:29:32.968Z,67.94
2023-02-06T04:32:07.316Z,67.82
2023-02-06T04:34:42.155Z,67.93
2023-02-06T04:37:15.936Z,67.91
2023-02-06T04:39:50.479Z,67.99
2023-02-06T04:42:24.452Z,67.94
2023-02-06T04:44:57.913Z,67.70
2023-02-06T04:47:31.848Z,67.84
2023-02-06T04:50:06.244Z,67.84
2023-02-06T04:52:40.156Z,67.94
2023-02-06T04:55:14.289Z,67.96
2023-02-06T04:57:48.612Z,68.19
2023-02-06T05:00:22.988Z,68.19
2023-02-06T05:02:56.814Z,68.03
2023-02-06T05:05:31.535Z,68.18
2023-02-06T05:08:05.900Z,68.13
2023-02-06T05:10:39.608Z,68.22
2023-02-06T05:13:13.752Z,68.27
2023-02-06T05:15:48.015Z,68.41
2023-02-06T05:18:21.874Z,68.17
2023-02-06T05:20:56.250Z,68.16
2023-02-06T05:23:30.320Z,68.22
2023-02-06T05:26:04.009Z,68.22
2023-02-06T05:28:38.190Z,68.27
2023-02-06T05:31:18.753Z,68.37
2023-02-06T05:33:53.988Z,68.43
2023-02-06T05:36:29.534Z,68.43
2023-02-06T05:39:03.184Z,68.37
2023-02-06T05:41:36.973Z,68.38
2023-02-06T05:44:11.490Z,68.27
2023-02-06T05:46:45.671Z,68.28
2023-02-06T05:49:20.001Z,68.23
2023-02-06T05:51:53.698Z,68.17
2023-02-06T05:54:29.583Z,68.04
2023-02-06T05:57:03.064Z,68.01
2023-02-06T05:59:36.964Z,67.87
2023-02-06T06:02:11.330Z,67.60
2023-02-06T06:04:45.723Z,67.51
2023-02-06T06:07:19.309Z,67.57
2023-02-06T06:09:52.969Z,67.41
2023-02-06T06:12:30.230Z,67.37
2023-02-06T06:15:04.237Z,67.28
2023-02-06T06:17:38.075Z,67.21
2023-02-06T06:20:13.451Z,67.26
2023-02-06T06:22:47.745Z,67.42
2023-02-06T06:25:41.885Z,67.48
2023-02-06T06:28:15.712Z,67.53
2023-02-06T06:30:49.647Z,67.47
2023-02-06T06:33:33.190Z,67.26
2023-02-06T06:36:08.226Z,67.39
2023-02-06T06:38:44.764Z,67.45
2023-02-06T06:41:18.700Z,67.43
2023-02-06T06:43:52.679Z,67.53
2023-02-06T06:46:26.984Z,67.57
2023-02-06T06:49:01.551Z,67.54
2023-02-06T06:51:35.012Z,67.53
2023-02-06T06:54:09.037Z,67.68
2023-02-06T06:56:43.301Z,67.79
2023-02-06T06:59:17.072Z,67.73
2023-02-06T07:01:52.960Z,67.62
2023-02-06T07:04:33.769Z,67.66
2023-02-06T07:07:08.163Z,67.50
2023-02-06T07:09:42.422Z,67.42
2023-02-06T07:12:16.180Z,67.39
2023-02-06T07:14:49.829Z,67.33
2023-02-06T07:17:23.418Z,67.28
2023-02-06T07:19:57.499Z,67.03
2023-02-06T07:22:31.572Z,67.03
2023-02-06T07:25:06.284Z,66.99
2023-02-06T07:27:42.763Z,66.95
2023-02-06T07:30:17.589Z,66.98
2023-02-06T07:32:51.576Z,66.95
2023-02-06T07:35:25.559Z,67.02
2023-02-06T07:37:59.707Z,67.04
2023-02-06T07:40:44.585Z,67.04
2023-02-06T07:43:19.469Z,66.81
2023-02-06T07:45:53.145Z,66.78
2023-02-06T07:48:27.162Z,66.81
2023-02-06T07:51:05.626Z,67.06
2023-02-06T07:53:43.069Z,67.31
2023-02-06T07:56:18.961Z,67.23
2023-02-06T07:58:56.208Z,67.34
2023-02-06T08:01:30.512Z,67.40
2023-02-06T08:04:04.546Z,67.61
2023-02-06T08:06:41.722Z,67.58
2023-02-06T08:09:18.068Z,67.56
2023-02-06T08:11:54.199Z,67.41
2023-02-06T08:14:28.915Z,67.54
2023-02-06T08:17:03.036Z,67.65
2023-02-06T08:19:36.945Z,67.61
2023-02-06T08:22:10.925Z,67.75
2023-02-06T08:24:44.846Z,67.70
2023-02-06T08:27:18.926Z,67.63
2023-02-06T08:29:52.962Z,67.60
2023-02-06T08:32:26.670Z,67.69
2023-02-06T08:35:00.550Z,67.69
2023-02-06T08:37:34.632Z,67.80
2023-02-06T08:40:10.154Z,67.77
2023-02-06T08:42:44.119Z,67.81
2023-02-06T08:45:18.096Z,67.74
2023-02-06T08:47:52.149Z,67.62
2023-02-06T08:50:25.812Z,67.50
2023-02-06T08:53:00.423Z,67.66
2023-02-06T08:55:34.058Z,67.84
2023-02-06T08:58:07.995Z,67.67
2023-02-06T09:00:41.747Z,67.44
2023-02-06T09:03:15.813Z,67.30
2023-02-06T09:05:49.382Z,67.08
2023-02-06T09:08:23.003Z,67.11
2023-02-06T09:10:56.756Z,66.42
2023-02-06T09:13:32.144Z,66.04
2023-02-06T09:16:06.655Z,66.24
2023-02-06T09:18:41.280Z,66.45
2023-02-06T09:21:17.096Z,66.65
2023-02-06T09:23:53.064Z,66.31
2023-02-06T09:26:29.074Z,65.65
2023-02-06T09:29:14.221Z,65.63
2023-02-06T09:31:48.359Z,65.69
2023-02-06T09:34:22.182Z,65.59
2023-02-06T09:36:57.136Z,65.80
2023-02-06T09:39:32.218Z,65.66
2023-02-06T09:42:08.987Z,65.21
2023-02-06T09:44:49.279Z,64.77
2023-02-06T09:47:29.626Z,64.47
2023-02-06T09:50:07.978Z,64.22
2023-02-06T09:52:57.866Z,64.43
2023-02-06T09:55:39.504Z,64.46
2023-02-06T09:58:24.367Z,64.52
2023-02-06T10:01:07.660Z,64.48
2023-02-06T10:03:56.471Z,64.14
2023-02-06T10:06:35.225Z,63.71
2023-02-06T10:09:15.692Z,63.26
2023-02-06T10:11:54.790Z,62.76
2023-02-06T10:14:36.725Z,62.59
2023-02-06T10:17:19.640Z,62.88
2023-02-06T10:20:01.044Z,62.88
2023-02-06T10:22:40.742Z,62.87
2023-02-06T10:25:27.120Z,62.85
2023-02-06T10:28:30.113Z,62.84
2023-02-06T10:31:30.979Z,62.79
2023-02-06T10:34:20.734Z,63.04
2023-02-06T10:37:08.168Z,63.24
2023-02-06T10:39:54.734Z,63.42
2023-02-06T10:42:43.475Z,63.56
2023-02-06T10:45:35.570Z,63.64
2023-02-06T10:48:29.716Z,65.42
2023-02-06T10:51:23.859Z,65.52
2023-02-06T10:54:00.453Z,63.90
2023-02-06T10:56:38.549Z,63.89
2023-02-06T10:59:22.766Z,62.73
2023-02-06T11:02:20.764Z,61.65
2023-02-06T11:05:06.981Z,61.32
2023-02-06T11:07:44.199Z,61.18
2023-02-06T11:10:19.865Z,59.95
2023-02-06T11:13:02.377Z,59.37
2023-02-06T11:15:40.627Z,59.24
2023-02-06T11:18:19.742Z,59.61
2023-02-06T11:20:55.809Z,59.91
2023-02-06T11:23:35.424Z,60.01
2023-02-06T11:26:14.587Z,60.24
2023-02-06T11:28:58.773Z,60.33
2023-02-06T11:31:45.642Z,60.46
2023-02-06T11:34:34.515Z,60.69
2023-02-06T11:37:32.206Z,61.05
2023-02-06T11:40:27.875Z,61.23
2023-02-06T11:43:20.498Z,61.23
2023-02-06T11:46:08.025Z,61.55
2023-02-06T11:48:44.309Z,61.81
2023-02-06T11:51:18.366Z,62.06
2023-02-06T11:54:04.446Z,62.30
2023-02-06T11:56:38.530Z,62.45
2023-02-06T11:59:23.634Z,62.59
2023-02-06T12:02:30.737Z,62.50
2023-02-06T12:05:12.415Z,62.28
2023-02-06T12:07:51.309Z,62.34
2023-02-06T12:10:35.009Z,62.27
2023-02-06T12:13:16.524Z,62.47
2023-02-06T12:15:53.937Z,62.39
2023-02-06T12:18:31.167Z,62.49
2023-02-06T12:21:13.908Z,62.51
2023-02-06T12:23:54.654Z,62.47
2023-02-06T12:26:31.981Z,62.42
2023-02-06T12:29:13.666Z,62.42
2023-02-06T12:31:53.382Z,62.47
2023-02-06T12:34:32.152Z,62.70
2023-02-06T12:37:14.786Z,63.01
2023-02-06T12:39:49.657Z,63.11
2023-02-06T12:42:44.660Z,63.30
2023-02-06T12:45:37.052Z,63.32
2023-02-06T12:48:19.087Z,63.46
2023-02-06T12:51:01.048Z,63.37
2023-02-06T12:53:40.293Z,62.87
2023-02-06T12:56:31.413Z,63.12
2023-02-06T12:59:22.306Z,63.09
2023-02-06T13:02:05.653Z,63.13
2023-02-06T13:04:40.565Z,63.42
2023-02-06T13:07:19.353Z,63.38
2023-02-06T13:10:03.012Z,63.35
2023-02-06T13:12:37.319Z,63.11
2023-02-06T13:15:25.283Z,62.98
2023-02-06T13:17:58.914Z,63.20
2023-02-06T13:20:33.406Z,63.26
2023-02-06T13:23:26.098Z,63.14
2023-02-06T13:26:03.346Z,63.22
2023-02-06T13:29:03.276Z,63.29
2023-02-06T13:31:38.926Z,63.18
2023-02-06T13:34:18.643Z,62.98
2023-02-06T13:36:55.475Z,63.14
2023-02-06T13:39:35.041Z,63.14
2023-02-06T13:42:34.314Z,63.27
2023-02-06T13:45:21.659Z,63.51
2023-02-06T13:48:36.659Z,63.60
2023-02-06T13:51:44.491Z,63.49
2023-02-06T13:54:56.632Z,63.37
2023-02-06T13:57:47.439Z,63.52
2023-02-06T14:00:25.557Z,63.65
2023-02-06T14:03:06.824Z,63.64
2023-02-06T14:05:48.861Z,63.54
2023-02-06T14:08:31.338Z,63.38
2023-02-06T14:11:33.285Z,63.39
2023-02-06T14:14:25.186Z,63.44
2023-02-06T14:17:08.784Z,63.51
2023-02-06T14:19:50.538Z,63.29
2023-02-06T14:22:36.347Z,63.56
2023-02-06T14:25:36.922Z,63.64
2023-02-06T14:28:20.335Z,63.63
2023-02-06T14:31:05.269Z,63.48
2023-02-06T14:34:00.886Z,63.44
2023-02-06T14:37:00.881Z,63.59
2023-02-06T14:39:45.831Z,63.72
2023-02-06T14:42:27.630Z,63.78
2023-02-06T14:45:26.124Z,63.90
2023-02-06T14:48:02.438Z,63.96
2023-02-06T14:50:40.695Z,63.95
2023-02-06T14:53:24.041Z,64.00
2023-02-06T14:56:16.413Z,64.18
2023-02-06T14:58:51.686Z,64.31
2023-02-06T15:01:28.476Z,64.40
2023-02-06T15:04:15.771Z,64.46
2023-02-06T15:07:03.688Z,64.42
2023-02-06T15:09:40.684Z,64.55
2023-02-06T15:12:27.048Z,64.66
2023-02-06T15:15:05.668Z,64.78
2023-02-06T15:17:39.070Z,64.82
2023-02-06T15:20:40.551Z,64.98
2023-02-06T15:23:20.449Z,65.05
2023-02-06T15:26:12.237Z,65.10
2023-02-06T15:28:47.567Z,65.16
2023-02-06T15:31:24.748Z,65.31
2023-02-06T15:34:02.066Z,65.44
2023-02-06T15:36:38.437Z,65.54
2023-02-06T15:39:15.850Z,65.71
2023-02-06T15:42:24.040Z,65.78
2023-02-06T15:45:23.593Z,65.83
2023-02-06T15:47:58.994Z,65.74
2023-02-06T15:50:32.752Z,65.91
2023-02-06T15:53:21.259Z,65.88
2023-02-06T15:55:59.454Z,66.05
2023-02-06T15:58:35.311Z,66.15
2023-02-06T16:01:15.313Z,66.20
2023-02-06T16:03:55.165Z,66.25
2023-02-06T16:06:29.473Z,66.27
2023-02-06T16:09:08.723Z,66.30
2023-02-06T16:11:51.328Z,66.38
2023-02-06T16:14:32.344Z,66.42
2023-02-06T16:17:27.056Z,66.56
2023-02-06T16:20:03.238Z,66.65
2023-02-06T16:22:40.389Z,66.76
2023-02-06T16:25:26.283Z,66.84
2023-02-06T16:28:01.334Z,67.00
2023-02-06T16:30:37.566Z,67.19
2023-02-06T16:33:35.537Z,67.19
2023-02-06T16:36:13.223Z,67.25
2023-02-06T16:38:57.672Z,67.27
2023-02-06T16:41:39.881Z,67.24
2023-02-06T16:44:17.470Z,67.36
2023-02-06T16:46:51.805Z,67.50
2023-02-06T16:49:26.169Z,67.43
2023-02-06T16:52:01.651Z,67.48
2023-02-06T16:54:36.180Z,67.57
2023-02-06T16:57:17.780Z,67.69
2023-02-06T16:59:53.099Z,67.80
2023-02-06T17:02:29.928Z,67.79
2023-02-06T17:05:05.812Z,67.90
2023-02-06T17:07:40.244Z,67.91
2023-02-06T17:10:17.321Z,67.89
2023-02-06T17:12:53.151Z,67.96
2023-02-06T17:15:28.059Z,67.86
2023-02-06T17:18:02.674Z,67.90
2023-02-06T17:20:39.770Z,67.95
2023-02-06T17:23:15.232Z,67.95
2023-02-06T17:25:51.221Z,67.95
2023-02-06T17:28:25.861Z,68.02
2023-02-06T17:31:03.556Z,68.07
2023-02-06T17:33:38.747Z,68.14
2023-02-06T17:36:18.505Z,68.23
2023-02-06T17:38:53.881Z,68.22
2023-02-06T17:41:27.804Z,68.20
2023-02-06T17:44:03.080Z,68.29
2023-02-06T17:46:38.516Z,68.27
2023-02-06T17:49:13.808Z,68.29
2023-02-06T17:51:48.132Z,68.37
2023-02-06T17:54:23.767Z,68.46
2023-02-06T17:56:59.586Z,68.48
2023-02-06T17:59:34.979Z,68.42
2023-02-06T18:02:15.976Z,68.49
2023-02-06T18:04:54.478Z,68.63
2023-02-06T18:07:30.042Z,68.66
2023-02-06T18:10:04.454Z,68.70
2023-02-06T18:12:41.268Z,68.75
2023-02-06T18:15:16.396Z,68.73
2023-02-06T18:17:55.326Z,68.71
2023-02-06T18:20:30.478Z,68.77
2023-02-06T18:23:05.266Z,68.75
2023-02-06T18:25:43.510Z,68.74
2023-02-06T18:28:18.787Z,68.83
2023-02-06T18:30:57.742Z,68.90
2023-02-06T18:33:36.512Z,68.99
2023-02-06T18:36:16.070Z,69.01
2023-02-06T18:38:54.884Z,69.05
2023-02-06T18:41:49.017Z,69.04
2023-02-06T18:44:27.937Z,69.15
2023-02-06T18:47:06.607Z,69.15
2023-02-06T18:49:47.112Z,69.14
2023-02-06T18:52:23.866Z,69.25
2023-02-06T18:55:04.311Z,69.19
2023-02-06T18:57:42.186Z,69.34
2023-02-06T19:00:21.703Z,69.32
2023-02-06T19:03:05.511Z,69.27
2023-02-06T19:05:46.529Z,69.20
2023-02-06T19:08:22.812Z,69.27
2023-02-06T19:11:10.627Z,69.16
2023-02-06T19:13:48.579Z,69.17
2023-02-06T19:16:27.325Z,69.09
2023-02-06T19:19:03.794Z,68.95
2023-02-06T19:21:40.386Z,68.93
2023-02-06T19:24:19.351Z,69.00
2023-02-06T19:27:00.671Z,69.11
2023-02-06T19:29:39.156Z,69.15
2023-02-06T19:32:15.989Z,69.17
2023-02-06T19:34:52.340Z,69.07
2023-02-06T19:37:31.559Z,69.08
2023-02-06T19:40:09.014Z,69.06
2023-02-06T19:42:48.110Z,68.88
2023-02-06T19:45:33.648Z,68.96
2023-02-06T19:48:14.383Z,69.01
2023-02-06T19:51:07.945Z,69.09
2023-02-06T19:54:08.179Z,69.04
2023-02-06T19:56:50.787Z,69.08
2023-02-06T19:59:32.076Z,69.15
2023-02-06T20:02:31.598Z,69.20
2023-02-06T20:05:10.188Z,69.20
2023-02-06T20:07:48.870Z,69.09
2023-02-06T20:10:26.199Z,69.02
2023-02-06T20:13:04.394Z,68.93
2023-02-06T20:15:43.400Z,68.98
2023-02-06T20:18:19.077Z,69.05
2023-02-06T20:20:55.793Z,69.02
2023-02-06T20:23:31.821Z,68.90
2023-02-06T20:26:09.245Z,68.94
2023-02-06T20:28:45.564Z,69.07
2023-02-06T20:31:22.316Z,69.08
2023-02-06T20:34:01.685Z,69.05
2023-02-06T20:36:44.765Z,69.14
2023-02-06T20:39:22.450Z,69.06
2023-02-06T20:41:58.968Z,69.13
2023-02-06T20:44:35.029Z,69.09
2023-02-06T20:47:10.601Z,69.01
2023-02-06T20:49:51.487Z,69.03
2023-02-06T20:52:27.047Z,68.96
2023-02-06T20:55:04.410Z,68.95
2023-02-06T20:57:40.259Z,68.98
2023-02-06T21:00:20.398Z,68.91
2023-02-06T21:02:55.001Z,68.82
2023-02-06T21:05:31.075Z,68.74
2023-02-06T21:08:07.365Z,68.81
2023-02-06T21:10:42.153Z,68.94
2023-02-06T21:13:16.356Z,68.99
2023-02-06T21:15:57.432Z,68.98
2023-02-06T21:18:34.752Z,69.10
2023-02-06T21:21:12.110Z,69.11
2023-02-06T21:23:47.873Z,68.96
2023-02-06T21:26:23.742Z,68.88
2023-02-06T21:28:59.719Z,68.85
2023-02-06T21:31:37.808Z,69.00
2023-02-06T21:34:21.740Z,68.98
2023-02-06T21:36:55.515Z,68.92
2023-02-06T21:39:30.991Z,68.92
2023-02-06T21:42:04.754Z,68.83
2023-02-06T21:44:38.806Z,68.80
2023-02-06T21:47:12.560Z,68.81
2023-02-06T21:49:57.149Z,68.83
2023-02-06T21:52:31.007Z,68.82
2023-02-06T21:55:07.525Z,68.67
2023-02-06T21:57:42.242Z,68.67
2023-02-06T22:00:18.233Z,68.61
2023-02-06T22:02:51.943Z,68.52
2023-02-06T22:05:25.920Z,68.43
2023-02-06T22:07:59.785Z,68.63
2023-02-06T22:10:33.258Z,68.83
2023-02-06T22:13:07.547Z,68.91
2023-02-06T22:15:41.357Z,68.87
2023-02-06T22:18:15.042Z,68.85
2023-02-06T22:20:48.868Z,68.86
2023-02-06T22:23:22.957Z,68.82
2023-02-06T22:25:56.703Z,68.91
2023-02-06T22:28:30.854Z,68.88
2023-02-06T22:31:11.156Z,68.91
2023-02-06T22:33:48.018Z,69.13
2023-02-06T22:36:23.387Z,69.26
2023-02-06T22:38:59.871Z,69.31
2023-02-06T22:41:34.426Z,69.51
2023-02-06T22:44:11.956Z,69.50
2023-02-06T22:46:56.528Z,69.50
2023-02-06T22:49:30.960Z,69.41
2023-02-06T22:52:04.784Z,69.28
2023-02-06T22:54:39.022Z,69.20
2023-02-06T22:57:13.066Z,69.28
2023-02-06T22:59:46.839Z,69.04
2023-02-06T23:02:20.527Z,69.01
2023-02-06T23:04:54.443Z,69.05
2023-02-06T23:07:28.351Z,69.12
2023-02-06T23:10:01.933Z,69.03
2023-02-06T23:12:35.565Z,69.15
2023-02-06T23:15:10.240Z,68.95
2023-02-06T23:17:44.747Z,68.83
2023-02-06T23:20:19.168Z,68.69
2023-02-06T23:22:52.651Z,68.47
2023-02-06T23:25:26.400Z,68.46
2023-02-06T23:28:00.390Z,68.48
2023-02-06T23:30:34.661Z,68.46
2023-02-06T23:33:08.853Z,68.60
2023-02-06T23:35:43.642Z,68.64
2023-02-06T23:38:17.458Z,68.68
2023-02-06T23:40:51.817Z,68.81
2023-02-06T23:43:25.466Z,68.86
2023-02-06T23:46:00.070Z,68.87
2023-02-06T23:48:34.423Z,68.95
2023-02-06T23:51:08.228Z,68.97
2023-02-06T23:53:41.834Z,68.86
2023-02-06T23:56:17.992Z,68.90
2023-02-06T23:58:52.247Z,68.92
